sensor_id;sensor_type;location;lat;lon;timestamp;temperature;humidity
15341;DHT22;7770;52.158;5.372;2023-02-01T00:01:13;5.40;99.90
15341;DHT22;7770;52.158;5.372;2023-02-01T00:03:59;5.50;99.90
15341;DHT22;7770;52.158;5.372;2023-02-01T00:06:45;5.40;99.90
15341;DHT22;7770;52.158;5.372;2023-02-01T00:09:31;5.50;99.90
15341;DHT22;7770;52.158;5.372;2023-02-01T00:12:17;5.50;99.90
15341;DHT22;7770;52.158;5.372;2023-02-01T00:15:04;5.50;99.90
15341;DHT22;7770;52.158;5.372;2023-02-01T00:17:54;5.50;99.90
15341;DHT22;7770;52.158;5.372;2023-02-01T00:20:45;5.50;99.90
15341;DHT22;7770;52.158;5.372;2023-02-01T00:23:36;5.50;99.90
15341;DHT22;7770;52.158;5.372;2023-02-01T00:26:33;5.60;99.90
15341;DHT22;7770;52.158;5.372;2023-02-01T00:29:20;5.60;99.90
15341;DHT22;7770;52.158;5.372;2023-02-01T00:32:06;5.60;99.90
15341;DHT22;7770;52.158;5.372;2023-02-01T00:34:52;5.70;99.90
15341;DHT22;7770;52.158;5.372;2023-02-01T00:37:38;5.70;99.90
15341;DHT22;7770;52.158;5.372;2023-02-01T00:40:24;5.80;99.90
15341;DHT22;7770;52.158;5.372;2023-02-01T00:43:10;5.80;99.90
15341;DHT22;7770;52.158;5.372;2023-02-01T00:45:56;5.90;99.90
15341;DHT22;7770;52.158;5.372;2023-02-01T00:48:43;5.80;99.90
15341;DHT22;7770;52.158;5.372;2023-02-01T00:51:29;5.80;99.90
15341;DHT22;7770;52.158;5.372;2023-02-01T00:54:15;5.80;99.90
15341;DHT22;7770;52.158;5.372;2023-02-01T00:57:01;5.80;99.90
15341;DHT22;7770;52.158;5.372;2023-02-01T00:59:47;5.80;99.90
15341;DHT22;7770;52.158;5.372;2023-02-01T01:02:33;5.80;99.90
15341;DHT22;7770;52.158;5.372;2023-02-01T01:05:19;5.90;99.90
15341;DHT22;7770;52.158;5.372;2023-02-01T01:08:05;5.90;99.90
15341;DHT22;7770;52.158;5.372;2023-02-01T01:10:51;6.00;99.90
15341;DHT22;7770;52.158;5.372;2023-02-01T01:13:38;6.10;99.90
15341;DHT22;7770;52.158;5.372;2023-02-01T01:16:25;6.10;99.90
15341;DHT22;7770;52.158;5.372;2023-02-01T01:19:12;6.10;99.90
15341;DHT22;7770;52.158;5.372;2023-02-01T01:21:58;6.00;99.90
15341;DHT22;7770;52.158;5.372;2023-02-01T01:24:44;6.00;99.90
15341;DHT22;7770;52.158;5.372;2023-02-01T01:27:30;5.90;99.90
15341;DHT22;7770;52.158;5.372;2023-02-01T01:30:16;5.90;99.90
15341;DHT22;7770;52.158;5.372;2023-02-01T01:33:03;5.90;99.90
15341;DHT22;7770;52.158;5.372;2023-02-01T01:35:49;5.90;99.90
15341;DHT22;7770;52.158;5.372;2023-02-01T01:38:35;5.90;99.90
15341;DHT22;7770;52.158;5.372;2023-02-01T01:41:24;5.90;99.90
15341;DHT22;7770;52.158;5.372;2023-02-01T01:47:46;6.10;99.90
15341;DHT22;7770;52.158;5.372;2023-02-01T01:50:49;6.20;99.90
15341;DHT22;7770;52.158;5.372;2023-02-01T01:53:55;6.10;99.90
15341;DHT22;7770;52.158;5.372;2023-02-01T01:56:51;6.20;99.90
15341;DHT22;7770;52.158;5.372;2023-02-01T01:59:43;6.30;99.90
15341;DHT22;7770;52.158;5.372;2023-02-01T02:02:33;6.30;99.90
15341;DHT22;7770;52.158;5.372;2023-02-01T02:05:21;6.40;99.90
15341;DHT22;7770;52.158;5.372;2023-02-01T02:08:07;6.40;99.90
15341;DHT22;7770;52.158;5.372;2023-02-01T02:10:54;6.40;99.90
15341;DHT22;7770;52.158;5.372;2023-02-01T02:13:51;6.50;99.90
15341;DHT22;7770;52.158;5.372;2023-02-01T02:19:55;6.50;99.90
15341;DHT22;7770;52.158;5.372;2023-02-01T02:27:00;6.60;99.90
15341;DHT22;7770;52.158;5.372;2023-02-01T02:34:22;6.50;99.90
15341;DHT22;7770;52.158;5.372;2023-02-01T02:37:45;6.60;99.90
15341;DHT22;7770;52.158;5.372;2023-02-01T02:41:41;6.60;99.90
15341;DHT22;7770;52.158;5.372;2023-02-01T02:44:45;6.70;99.90
15341;DHT22;7770;52.158;5.372;2023-02-01T02:48:44;6.70;99.90
15341;DHT22;7770;52.158;5.372;2023-02-01T02:51:48;6.70;99.90
15341;DHT22;7770;52.158;5.372;2023-02-01T02:54:57;6.80;99.90
15341;DHT22;7770;52.158;5.372;2023-02-01T02:57:45;6.70;99.90
15341;DHT22;7770;52.158;5.372;2023-02-01T03:00:50;6.80;99.90
15341;DHT22;7770;52.158;5.372;2023-02-01T03:03:56;6.80;99.90
15341;DHT22;7770;52.158;5.372;2023-02-01T03:06:54;6.80;99.90
15341;DHT22;7770;52.158;5.372;2023-02-01T03:09:41;6.70;99.90
15341;DHT22;7770;52.158;5.372;2023-02-01T03:12:35;6.70;99.90
15341;DHT22;7770;52.158;5.372;2023-02-01T03:21:57;6.50;99.90
15341;DHT22;7770;52.158;5.372;2023-02-01T03:27:57;6.40;99.90
15341;DHT22;7770;52.158;5.372;2023-02-01T03:30:46;6.30;99.90
15341;DHT22;7770;52.158;5.372;2023-02-01T03:33:33;6.20;99.90
15341;DHT22;7770;52.158;5.372;2023-02-01T03:36:35;6.20;99.90
15341;DHT22;7770;52.158;5.372;2023-02-01T03:39:35;6.20;99.90
15341;DHT22;7770;52.158;5.372;2023-02-01T03:42:44;6.20;99.90
15341;DHT22;7770;52.158;5.372;2023-02-01T03:45:38;6.10;99.90
15341;DHT22;7770;52.158;5.372;2023-02-01T03:48:28;6.10;99.90
15341;DHT22;7770;52.158;5.372;2023-02-01T03:51:15;6.00;99.90
15341;DHT22;7770;52.158;5.372;2023-02-01T03:54:03;6.10;99.90
15341;DHT22;7770;52.158;5.372;2023-02-01T03:56:54;6.10;99.90
15341;DHT22;7770;52.158;5.372;2023-02-01T03:59:44;6.10;99.90
15341;DHT22;7770;52.158;5.372;2023-02-01T04:02:30;6.10;99.90
15341;DHT22;7770;52.158;5.372;2023-02-01T04:05:17;6.20;99.90
15341;DHT22;7770;52.158;5.372;2023-02-01T04:08:03;6.30;99.90
15341;DHT22;7770;52.158;5.372;2023-02-01T04:10:50;6.40;99.90
15341;DHT22;7770;52.158;5.372;2023-02-01T04:13:36;6.50;99.90
15341;DHT22;7770;52.158;5.372;2023-02-01T04:16:22;6.50;99.90
15341;DHT22;7770;52.158;5.372;2023-02-01T04:19:08;6.50;99.90
15341;DHT22;7770;52.158;5.372;2023-02-01T04:21:54;6.60;99.90
15341;DHT22;7770;52.158;5.372;2023-02-01T04:24:40;6.70;99.90
15341;DHT22;7770;52.158;5.372;2023-02-01T04:27:27;6.70;99.90
15341;DHT22;7770;52.158;5.372;2023-02-01T04:30:13;6.70;99.90
15341;DHT22;7770;52.158;5.372;2023-02-01T04:32:59;6.70;99.90
15341;DHT22;7770;52.158;5.372;2023-02-01T04:35:45;6.70;99.90
15341;DHT22;7770;52.158;5.372;2023-02-01T04:38:31;6.70;99.90
15341;DHT22;7770;52.158;5.372;2023-02-01T04:41:18;6.70;99.90
15341;DHT22;7770;52.158;5.372;2023-02-01T04:44:05;6.60;99.90
15341;DHT22;7770;52.158;5.372;2023-02-01T04:46:51;6.50;99.90
15341;DHT22;7770;52.158;5.372;2023-02-01T04:49:37;6.40;99.90
15341;DHT22;7770;52.158;5.372;2023-02-01T04:52:23;6.30;99.90
15341;DHT22;7770;52.158;5.372;2023-02-01T04:55:09;6.20;99.90
15341;DHT22;7770;52.158;5.372;2023-02-01T04:57:55;6.20;99.90
15341;DHT22;7770;52.158;5.372;2023-02-01T05:00:42;6.10;99.90
15341;DHT22;7770;52.158;5.372;2023-02-01T05:03:28;6.10;99.90
15341;DHT22;7770;52.158;5.372;2023-02-01T05:06:14;6.10;99.90
15341;DHT22;7770;52.158;5.372;2023-02-01T05:09:00;6.10;99.90
15341;DHT22;7770;52.158;5.372;2023-02-01T05:11:46;6.30;99.90
15341;DHT22;7770;52.158;5.372;2023-02-01T05:14:50;6.30;99.90
15341;DHT22;7770;52.158;5.372;2023-02-01T05:17:36;6.20;99.90
15341;DHT22;7770;52.158;5.372;2023-02-01T05:20:23;6.20;99.90
15341;DHT22;7770;52.158;5.372;2023-02-01T05:23:09;6.10;99.90
15341;DHT22;7770;52.158;5.372;2023-02-01T05:25:59;6.20;99.90
15341;DHT22;7770;52.158;5.372;2023-02-01T05:28:46;6.20;99.90
15341;DHT22;7770;52.158;5.372;2023-02-01T05:31:32;6.20;99.90
15341;DHT22;7770;52.158;5.372;2023-02-01T05:34:18;6.30;99.90
15341;DHT22;7770;52.158;5.372;2023-02-01T05:37:04;6.40;99.90
15341;DHT22;7770;52.158;5.372;2023-02-01T05:39:50;6.40;99.90
15341;DHT22;7770;52.158;5.372;2023-02-01T05:42:36;6.50;99.90
15341;DHT22;7770;52.158;5.372;2023-02-01T05:45:22;6.40;99.90
15341;DHT22;7770;52.158;5.372;2023-02-01T05:48:08;6.40;99.90
15341;DHT22;7770;52.158;5.372;2023-02-01T05:50:54;6.50;99.90
15341;DHT22;7770;52.158;5.372;2023-02-01T05:53:40;6.50;99.90
15341;DHT22;7770;52.158;5.372;2023-02-01T05:56:26;6.60;99.90
15341;DHT22;7770;52.158;5.372;2023-02-01T05:59:12;6.60;99.90
15341;DHT22;7770;52.158;5.372;2023-02-01T06:01:58;6.60;99.90
15341;DHT22;7770;52.158;5.372;2023-02-01T06:04:44;6.60;99.90
15341;DHT22;7770;52.158;5.372;2023-02-01T06:07:30;6.60;99.90
15341;DHT22;7770;52.158;5.372;2023-02-01T06:10:18;6.60;99.90
15341;DHT22;7770;52.158;5.372;2023-02-01T06:13:04;6.60;99.90
15341;DHT22;7770;52.158;5.372;2023-02-01T06:15:50;6.60;99.90
15341;DHT22;7770;52.158;5.372;2023-02-01T06:18:36;6.60;99.90
15341;DHT22;7770;52.158;5.372;2023-02-01T06:21:23;6.60;99.90
15341;DHT22;7770;52.158;5.372;2023-02-01T06:24:09;6.60;99.90
15341;DHT22;7770;52.158;5.372;2023-02-01T06:26:55;6.60;99.90
15341;DHT22;7770;52.158;5.372;2023-02-01T06:29:41;6.50;99.90
15341;DHT22;7770;52.158;5.372;2023-02-01T06:32:27;6.50;99.90
15341;DHT22;7770;52.158;5.372;2023-02-01T06:35:13;6.30;99.90
15341;DHT22;7770;52.158;5.372;2023-02-01T06:38:01;6.20;99.90
15341;DHT22;7770;52.158;5.372;2023-02-01T06:40:52;6.20;99.90
15341;DHT22;7770;52.158;5.372;2023-02-01T06:43:39;6.10;99.90
15341;DHT22;7770;52.158;5.372;2023-02-01T06:46:25;6.10;99.90
15341;DHT22;7770;52.158;5.372;2023-02-01T06:49:11;6.00;99.90
15341;DHT22;7770;52.158;5.372;2023-02-01T06:51:57;6.00;99.90
15341;DHT22;7770;52.158;5.372;2023-02-01T06:54:45;6.00;99.90
15341;DHT22;7770;52.158;5.372;2023-02-01T06:57:31;6.00;99.90
15341;DHT22;7770;52.158;5.372;2023-02-01T07:00:20;6.00;99.90
15341;DHT22;7770;52.158;5.372;2023-02-01T07:03:07;5.90;99.90
15341;DHT22;7770;52.158;5.372;2023-02-01T07:05:57;6.00;99.90
15341;DHT22;7770;52.158;5.372;2023-02-01T07:08:46;6.00;99.90
15341;DHT22;7770;52.158;5.372;2023-02-01T07:11:32;6.10;99.90
15341;DHT22;7770;52.158;5.372;2023-02-01T07:14:18;6.10;99.90
15341;DHT22;7770;52.158;5.372;2023-02-01T07:17:04;6.20;99.90
15341;DHT22;7770;52.158;5.372;2023-02-01T07:19:50;6.20;99.90
15341;DHT22;7770;52.158;5.372;2023-02-01T07:22:36;6.30;99.90
15341;DHT22;7770;52.158;5.372;2023-02-01T07:25:23;6.30;99.90
15341;DHT22;7770;52.158;5.372;2023-02-01T07:28:09;6.30;99.90
15341;DHT22;7770;52.158;5.372;2023-02-01T07:30:55;6.20;99.90
15341;DHT22;7770;52.158;5.372;2023-02-01T07:33:42;6.20;99.90
15341;DHT22;7770;52.158;5.372;2023-02-01T07:36:28;6.20;99.90
15341;DHT22;7770;52.158;5.372;2023-02-01T07:39:14;6.20;99.90
15341;DHT22;7770;52.158;5.372;2023-02-01T07:42:00;6.20;99.90
15341;DHT22;7770;52.158;5.372;2023-02-01T07:44:47;6.20;99.90
15341;DHT22;7770;52.158;5.372;2023-02-01T07:47:33;6.20;99.90
15341;DHT22;7770;52.158;5.372;2023-02-01T07:50:19;6.20;99.90
15341;DHT22;7770;52.158;5.372;2023-02-01T07:53:05;6.20;99.90
15341;DHT22;7770;52.158;5.372;2023-02-01T07:55:51;6.30;99.90
15341;DHT22;7770;52.158;5.372;2023-02-01T07:58:38;6.30;99.90
15341;DHT22;7770;52.158;5.372;2023-02-01T08:01:26;6.30;99.90
15341;DHT22;7770;52.158;5.372;2023-02-01T08:04:12;6.40;99.90
15341;DHT22;7770;52.158;5.372;2023-02-01T08:06:59;6.40;99.90
15341;DHT22;7770;52.158;5.372;2023-02-01T08:09:45;6.40;99.90
15341;DHT22;7770;52.158;5.372;2023-02-01T08:12:31;6.60;99.90
15341;DHT22;7770;52.158;5.372;2023-02-01T08:15:17;6.60;99.90
15341;DHT22;7770;52.158;5.372;2023-02-01T08:18:03;6.60;99.90
15341;DHT22;7770;52.158;5.372;2023-02-01T08:20:50;6.50;99.90
15341;DHT22;7770;52.158;5.372;2023-02-01T08:23:37;6.60;99.90
15341;DHT22;7770;52.158;5.372;2023-02-01T08:26:25;6.60;99.90
15341;DHT22;7770;52.158;5.372;2023-02-01T08:29:11;7.10;99.90
15341;DHT22;7770;52.158;5.372;2023-02-01T08:31:59;7.70;99.90
15341;DHT22;7770;52.158;5.372;2023-02-01T08:34:45;8.00;99.90
15341;DHT22;7770;52.158;5.372;2023-02-01T08:37:31;9.20;99.90
15341;DHT22;7770;52.158;5.372;2023-02-01T08:40:17;9.00;99.90
15341;DHT22;7770;52.158;5.372;2023-02-01T08:43:04;8.30;99.90
15341;DHT22;7770;52.158;5.372;2023-02-01T08:45:54;7.80;99.90
15341;DHT22;7770;52.158;5.372;2023-02-01T08:48:40;7.80;99.90
15341;DHT22;7770;52.158;5.372;2023-02-01T08:51:26;8.20;99.90
15341;DHT22;7770;52.158;5.372;2023-02-01T08:54:12;9.50;99.90
15341;DHT22;7770;52.158;5.372;2023-02-01T08:56:58;11.20;99.90
15341;DHT22;7770;52.158;5.372;2023-02-01T08:59:44;11.00;99.90
15341;DHT22;7770;52.158;5.372;2023-02-01T09:02:30;10.00;99.90
15341;DHT22;7770;52.158;5.372;2023-02-01T09:05:16;9.10;99.90
15341;DHT22;7770;52.158;5.372;2023-02-01T09:08:04;8.90;99.90
15341;DHT22;7770;52.158;5.372;2023-02-01T09:10:51;9.60;99.90
15341;DHT22;7770;52.158;5.372;2023-02-01T09:13:37;10.20;99.90
15341;DHT22;7770;52.158;5.372;2023-02-01T09:16:23;10.80;99.90
15341;DHT22;7770;52.158;5.372;2023-02-01T09:19:09;11.70;99.90
15341;DHT22;7770;52.158;5.372;2023-02-01T09:21:55;11.80;99.90
15341;DHT22;7770;52.158;5.372;2023-02-01T09:24:41;11.10;99.90
15341;DHT22;7770;52.158;5.372;2023-02-01T09:27:27;10.50;99.90
15341;DHT22;7770;52.158;5.372;2023-02-01T09:30:14;10.40;99.90
15341;DHT22;7770;52.158;5.372;2023-02-01T09:33:00;10.40;99.90
15341;DHT22;7770;52.158;5.372;2023-02-01T09:35:46;9.90;99.90
15341;DHT22;7770;52.158;5.372;2023-02-01T09:38:32;9.30;99.90
15341;DHT22;7770;52.158;5.372;2023-02-01T09:44:52;8.60;99.90
15341;DHT22;7770;52.158;5.372;2023-02-01T09:47:58;8.40;99.90
15341;DHT22;7770;52.158;5.372;2023-02-01T09:50:52;8.30;99.90
15341;DHT22;7770;52.158;5.372;2023-02-01T09:53:44;8.30;99.90
15341;DHT22;7770;52.158;5.372;2023-02-01T09:56:46;8.30;99.90
15341;DHT22;7770;52.158;5.372;2023-02-01T09:59:43;8.30;99.90
15341;DHT22;7770;52.158;5.372;2023-02-01T10:02:36;8.10;99.90
15341;DHT22;7770;52.158;5.372;2023-02-01T10:15:52;7.90;99.90
15341;DHT22;7770;52.158;5.372;2023-02-01T10:22:09;7.80;99.90
15341;DHT22;7770;52.158;5.372;2023-02-01T10:25:08;7.60;99.90
15341;DHT22;7770;52.158;5.372;2023-02-01T10:28:03;7.40;99.90
15341;DHT22;7770;52.158;5.372;2023-02-01T10:30:56;7.30;99.90
15341;DHT22;7770;52.158;5.372;2023-02-01T10:33:49;7.30;99.90
15341;DHT22;7770;52.158;5.372;2023-02-01T10:36:42;7.20;99.90
15341;DHT22;7770;52.158;5.372;2023-02-01T10:39:36;7.20;99.90
15341;DHT22;7770;52.158;5.372;2023-02-01T10:42:26;7.30;99.90
15341;DHT22;7770;52.158;5.372;2023-02-01T10:45:19;7.30;99.90
15341;DHT22;7770;52.158;5.372;2023-02-01T10:48:07;7.30;99.90
15341;DHT22;7770;52.158;5.372;2023-02-01T10:50:58;7.40;99.90
15341;DHT22;7770;52.158;5.372;2023-02-01T10:53:53;7.50;99.90
15341;DHT22;7770;52.158;5.372;2023-02-01T10:56:44;7.50;99.90
15341;DHT22;7770;52.158;5.372;2023-02-01T10:59:33;7.70;99.90
15341;DHT22;7770;52.158;5.372;2023-02-01T11:02:33;7.90;99.90
15341;DHT22;7770;52.158;5.372;2023-02-01T11:05:20;8.10;99.90
15341;DHT22;7770;52.158;5.372;2023-02-01T11:08:15;8.20;99.90
15341;DHT22;7770;52.158;5.372;2023-02-01T11:11:03;8.10;99.90
15341;DHT22;7770;52.158;5.372;2023-02-01T11:14:00;8.00;99.90
15341;DHT22;7770;52.158;5.372;2023-02-01T11:16:49;8.00;99.90
15341;DHT22;7770;52.158;5.372;2023-02-01T11:19:38;7.90;99.90
15341;DHT22;7770;52.158;5.372;2023-02-01T11:22:26;7.80;99.90
15341;DHT22;7770;52.158;5.372;2023-02-01T11:25:16;7.80;99.90
15341;DHT22;7770;52.158;5.372;2023-02-01T11:28:03;7.80;99.90
15341;DHT22;7770;52.158;5.372;2023-02-01T11:30:51;7.80;99.90
15341;DHT22;7770;52.158;5.372;2023-02-01T11:33:47;7.90;99.90
15341;DHT22;7770;52.158;5.372;2023-02-01T11:36:36;7.90;99.90
15341;DHT22;7770;52.158;5.372;2023-02-01T11:39:29;8.10;99.90
15341;DHT22;7770;52.158;5.372;2023-02-01T11:42:17;8.20;99.90
15341;DHT22;7770;52.158;5.372;2023-02-01T11:45:28;8.30;99.90
15341;DHT22;7770;52.158;5.372;2023-02-01T11:48:16;8.40;99.90
15341;DHT22;7770;52.158;5.372;2023-02-01T11:51:27;8.60;99.90
15341;DHT22;7770;52.158;5.372;2023-02-01T11:54:27;8.60;99.90
15341;DHT22;7770;52.158;5.372;2023-02-01T12:08:23;8.90;99.90
15341;DHT22;7770;52.158;5.372;2023-02-01T12:14:38;8.90;99.90
15341;DHT22;7770;52.158;5.372;2023-02-01T12:21:22;9.10;99.90
15341;DHT22;7770;52.158;5.372;2023-02-01T12:31:20;8.70;99.90
15341;DHT22;7770;52.158;5.372;2023-02-01T12:37:25;8.60;99.90
15341;DHT22;7770;52.158;5.372;2023-02-01T12:43:56;8.70;99.90
15341;DHT22;7770;52.158;5.372;2023-02-01T12:46:48;8.70;99.90
15341;DHT22;7770;52.158;5.372;2023-02-01T12:49:50;8.60;99.90
15341;DHT22;7770;52.158;5.372;2023-02-01T12:53:14;8.50;99.90
15341;DHT22;7770;52.158;5.372;2023-02-01T12:56:10;8.50;99.90
15341;DHT22;7770;52.158;5.372;2023-02-01T12:59:04;8.50;99.90
15341;DHT22;7770;52.158;5.372;2023-02-01T13:02:33;8.50;99.90
15341;DHT22;7770;52.158;5.372;2023-02-01T13:08:57;8.50;99.90
15341;DHT22;7770;52.158;5.372;2023-02-01T13:11:52;8.50;99.90
15341;DHT22;7770;52.158;5.372;2023-02-01T13:14:48;8.50;99.90
15341;DHT22;7770;52.158;5.372;2023-02-01T13:17:40;8.50;99.90
15341;DHT22;7770;52.158;5.372;2023-02-01T13:20:31;8.40;99.90
15341;DHT22;7770;52.158;5.372;2023-02-01T13:23:25;8.40;99.90
15341;DHT22;7770;52.158;5.372;2023-02-01T13:26:15;8.30;99.90
15341;DHT22;7770;52.158;5.372;2023-02-01T13:29:06;8.30;99.90
15341;DHT22;7770;52.158;5.372;2023-02-01T13:32:01;8.30;99.90
15341;DHT22;7770;52.158;5.372;2023-02-01T13:38:40;8.30;99.90
15341;DHT22;7770;52.158;5.372;2023-02-01T13:41:58;8.40;99.90
15341;DHT22;7770;52.158;5.372;2023-02-01T13:44:50;8.40;99.90
15341;DHT22;7770;52.158;5.372;2023-02-01T13:47:42;8.50;99.90
15341;DHT22;7770;52.158;5.372;2023-02-01T13:50:33;8.60;99.90
15341;DHT22;7770;52.158;5.372;2023-02-01T13:53:31;8.50;99.90
15341;DHT22;7770;52.158;5.372;2023-02-01T13:56:23;8.60;99.90
15341;DHT22;7770;52.158;5.372;2023-02-01T13:59:44;8.70;99.90
15341;DHT22;7770;52.158;5.372;2023-02-01T14:08:13;8.70;99.90
15341;DHT22;7770;52.158;5.372;2023-02-01T14:11:00;8.70;99.90
15341;DHT22;7770;52.158;5.372;2023-02-01T14:13:46;8.60;99.90
15341;DHT22;7770;52.158;5.372;2023-02-01T14:16:32;8.70;99.90
15341;DHT22;7770;52.158;5.372;2023-02-01T14:19:23;8.70;99.90
15341;DHT22;7770;52.158;5.372;2023-02-01T14:25:16;8.60;99.90
15341;DHT22;7770;52.158;5.372;2023-02-01T14:28:20;8.60;99.90
15341;DHT22;7770;52.158;5.372;2023-02-01T14:31:40;8.60;99.90
15341;DHT22;7770;52.158;5.372;2023-02-01T14:37:37;8.50;99.90
15341;DHT22;7770;52.158;5.372;2023-02-01T14:40:26;8.50;99.90
15341;DHT22;7770;52.158;5.372;2023-02-01T14:43:13;8.50;99.90
15341;DHT22;7770;52.158;5.372;2023-02-01T14:45:59;8.40;99.90
15341;DHT22;7770;52.158;5.372;2023-02-01T14:48:46;8.50;99.90
15341;DHT22;7770;52.158;5.372;2023-02-01T14:51:32;8.50;99.90
15341;DHT22;7770;52.158;5.372;2023-02-01T14:54:19;8.50;99.90
15341;DHT22;7770;52.158;5.372;2023-02-01T14:57:15;8.50;99.90
15341;DHT22;7770;52.158;5.372;2023-02-01T15:00:16;8.40;99.90
15341;DHT22;7770;52.158;5.372;2023-02-01T15:06:42;8.20;99.90
15341;DHT22;7770;52.158;5.372;2023-02-01T15:09:46;8.20;99.90
15341;DHT22;7770;52.158;5.372;2023-02-01T15:12:40;8.20;99.90
15341;DHT22;7770;52.158;5.372;2023-02-01T15:15:26;8.20;99.90
15341;DHT22;7770;52.158;5.372;2023-02-01T15:18:16;8.20;99.90
15341;DHT22;7770;52.158;5.372;2023-02-01T15:21:06;8.20;99.90
15341;DHT22;7770;52.158;5.372;2023-02-01T15:24:28;8.30;99.90
15341;DHT22;7770;52.158;5.372;2023-02-01T15:27:15;8.30;99.90
15341;DHT22;7770;52.158;5.372;2023-02-01T15:30:19;8.30;99.90
15341;DHT22;7770;52.158;5.372;2023-02-01T15:39:20;8.30;99.90
15341;DHT22;7770;52.158;5.372;2023-02-01T15:42:12;8.30;99.90
15341;DHT22;7770;52.158;5.372;2023-02-01T15:45:04;8.30;99.90
15341;DHT22;7770;52.158;5.372;2023-02-01T15:48:02;8.30;99.90
15341;DHT22;7770;52.158;5.372;2023-02-01T15:50:49;8.30;99.90
15341;DHT22;7770;52.158;5.372;2023-02-01T15:53:36;8.30;99.90
15341;DHT22;7770;52.158;5.372;2023-02-01T15:56:37;8.30;99.90
15341;DHT22;7770;52.158;5.372;2023-02-01T15:59:30;8.30;99.90
15341;DHT22;7770;52.158;5.372;2023-02-01T16:02:43;8.30;99.90
15341;DHT22;7770;52.158;5.372;2023-02-01T16:05:42;8.30;99.90
15341;DHT22;7770;52.158;5.372;2023-02-01T16:08:31;8.30;99.90
15341;DHT22;7770;52.158;5.372;2023-02-01T16:11:31;8.30;99.90
15341;DHT22;7770;52.158;5.372;2023-02-01T16:14:18;8.30;99.90
15341;DHT22;7770;52.158;5.372;2023-02-01T16:17:04;8.30;99.90
15341;DHT22;7770;52.158;5.372;2023-02-01T16:19:51;8.30;99.90
15341;DHT22;7770;52.158;5.372;2023-02-01T16:22:37;8.30;99.90
15341;DHT22;7770;52.158;5.372;2023-02-01T16:25:24;8.30;99.90
15341;DHT22;7770;52.158;5.372;2023-02-01T16:28:10;8.30;99.90
15341;DHT22;7770;52.158;5.372;2023-02-01T16:30:56;8.30;99.90
15341;DHT22;7770;52.158;5.372;2023-02-01T16:33:42;8.30;99.90
15341;DHT22;7770;52.158;5.372;2023-02-01T16:36:28;8.30;99.90
15341;DHT22;7770;52.158;5.372;2023-02-01T16:39:14;8.30;99.90
15341;DHT22;7770;52.158;5.372;2023-02-01T16:42:00;8.30;99.90
15341;DHT22;7770;52.158;5.372;2023-02-01T16:44:55;8.30;99.90
15341;DHT22;7770;52.158;5.372;2023-02-01T16:47:48;8.30;99.90
15341;DHT22;7770;52.158;5.372;2023-02-01T16:50:37;8.30;99.90
15341;DHT22;7770;52.158;5.372;2023-02-01T16:53:24;8.30;99.90
15341;DHT22;7770;52.158;5.372;2023-02-01T16:56:25;8.30;99.90
15341;DHT22;7770;52.158;5.372;2023-02-01T16:59:15;8.30;99.90
15341;DHT22;7770;52.158;5.372;2023-02-01T17:02:01;8.30;99.90
15341;DHT22;7770;52.158;5.372;2023-02-01T17:04:47;8.30;99.90
15341;DHT22;7770;52.158;5.372;2023-02-01T17:07:34;8.30;99.90
15341;DHT22;7770;52.158;5.372;2023-02-01T17:10:23;8.30;99.90
15341;DHT22;7770;52.158;5.372;2023-02-01T17:13:15;8.30;99.90
15341;DHT22;7770;52.158;5.372;2023-02-01T17:16:04;8.40;99.90
15341;DHT22;7770;52.158;5.372;2023-02-01T17:19:04;8.40;99.90
15341;DHT22;7770;52.158;5.372;2023-02-01T17:21:54;8.30;99.90
15341;DHT22;7770;52.158;5.372;2023-02-01T17:24:44;8.30;99.90
15341;DHT22;7770;52.158;5.372;2023-02-01T17:27:30;8.30;99.90
15341;DHT22;7770;52.158;5.372;2023-02-01T17:30:16;8.30;99.90
15341;DHT22;7770;52.158;5.372;2023-02-01T17:33:03;8.30;99.90
15341;DHT22;7770;52.158;5.372;2023-02-01T17:35:56;8.30;99.90
15341;DHT22;7770;52.158;5.372;2023-02-01T17:38:43;8.30;99.90
15341;DHT22;7770;52.158;5.372;2023-02-01T17:41:29;8.30;99.90
15341;DHT22;7770;52.158;5.372;2023-02-01T17:44:15;8.30;99.90
15341;DHT22;7770;52.158;5.372;2023-02-01T17:47:01;8.30;99.90
15341;DHT22;7770;52.158;5.372;2023-02-01T17:49:47;8.30;99.90
15341;DHT22;7770;52.158;5.372;2023-02-01T17:52:40;8.30;99.90
15341;DHT22;7770;52.158;5.372;2023-02-01T17:55:26;8.30;99.90
15341;DHT22;7770;52.158;5.372;2023-02-01T17:58:14;8.30;99.90
15341;DHT22;7770;52.158;5.372;2023-02-01T18:01:00;8.40;99.90
15341;DHT22;7770;52.158;5.372;2023-02-01T18:03:47;8.30;99.90
15341;DHT22;7770;52.158;5.372;2023-02-01T18:06:34;8.40;99.90
15341;DHT22;7770;52.158;5.372;2023-02-01T18:09:20;8.40;99.90
15341;DHT22;7770;52.158;5.372;2023-02-01T18:12:19;8.30;99.90
15341;DHT22;7770;52.158;5.372;2023-02-01T18:15:21;8.30;99.90
15341;DHT22;7770;52.158;5.372;2023-02-01T18:18:08;8.20;99.90
15341;DHT22;7770;52.158;5.372;2023-02-01T18:20:54;8.10;99.90
15341;DHT22;7770;52.158;5.372;2023-02-01T18:23:40;7.90;99.90
15341;DHT22;7770;52.158;5.372;2023-02-01T18:26:26;7.60;99.90
15341;DHT22;7770;52.158;5.372;2023-02-01T18:29:12;7.30;99.90
15341;DHT22;7770;52.158;5.372;2023-02-01T18:31:58;7.10;99.90
15341;DHT22;7770;52.158;5.372;2023-02-01T18:34:44;7.10;99.90
15341;DHT22;7770;52.158;5.372;2023-02-01T18:37:30;7.10;99.90
15341;DHT22;7770;52.158;5.372;2023-02-01T18:43:10;7.10;99.90
15341;DHT22;7770;52.158;5.372;2023-02-01T18:45:56;7.20;99.90
15341;DHT22;7770;52.158;5.372;2023-02-01T18:48:43;7.30;99.90
15341;DHT22;7770;52.158;5.372;2023-02-01T18:51:29;7.40;99.90
15341;DHT22;7770;52.158;5.372;2023-02-01T18:54:15;7.50;99.90
15341;DHT22;7770;52.158;5.372;2023-02-01T18:57:01;7.60;99.90
15341;DHT22;7770;52.158;5.372;2023-02-01T18:59:48;7.80;99.90
15341;DHT22;7770;52.158;5.372;2023-02-01T19:02:34;7.80;99.90
15341;DHT22;7770;52.158;5.372;2023-02-01T19:05:20;7.90;99.90
15341;DHT22;7770;52.158;5.372;2023-02-01T19:08:06;7.90;99.90
15341;DHT22;7770;52.158;5.372;2023-02-01T19:10:53;7.80;99.90
15341;DHT22;7770;52.158;5.372;2023-02-01T19:13:40;7.70;99.90
15341;DHT22;7770;52.158;5.372;2023-02-01T19:16:26;7.70;99.90
15341;DHT22;7770;52.158;5.372;2023-02-01T19:19:12;7.80;99.90
15341;DHT22;7770;52.158;5.372;2023-02-01T19:21:58;7.90;99.90
15341;DHT22;7770;52.158;5.372;2023-02-01T19:24:44;7.90;99.90
15341;DHT22;7770;52.158;5.372;2023-02-01T19:27:30;8.00;99.90
15341;DHT22;7770;52.158;5.372;2023-02-01T19:30:17;8.00;99.90
15341;DHT22;7770;52.158;5.372;2023-02-01T19:33:05;8.00;99.90
15341;DHT22;7770;52.158;5.372;2023-02-01T19:35:57;8.00;99.90
15341;DHT22;7770;52.158;5.372;2023-02-01T19:38:43;8.00;99.90
15341;DHT22;7770;52.158;5.372;2023-02-01T19:41:29;8.10;99.90
15341;DHT22;7770;52.158;5.372;2023-02-01T19:44:16;8.00;99.90
15341;DHT22;7770;52.158;5.372;2023-02-01T19:47:02;8.10;99.90
15341;DHT22;7770;52.158;5.372;2023-02-01T19:49:48;8.00;99.90
15341;DHT22;7770;52.158;5.372;2023-02-01T19:52:35;8.10;99.90
15341;DHT22;7770;52.158;5.372;2023-02-01T19:55:21;8.00;99.90
15341;DHT22;7770;52.158;5.372;2023-02-01T19:58:07;7.90;99.90
15341;DHT22;7770;52.158;5.372;2023-02-01T20:00:54;7.90;99.90
15341;DHT22;7770;52.158;5.372;2023-02-01T20:03:41;7.90;99.90
15341;DHT22;7770;52.158;5.372;2023-02-01T20:06:31;7.90;99.90
15341;DHT22;7770;52.158;5.372;2023-02-01T20:09:22;7.90;99.90
15341;DHT22;7770;52.158;5.372;2023-02-01T20:12:10;7.90;99.90
15341;DHT22;7770;52.158;5.372;2023-02-01T20:14:56;7.90;99.90
15341;DHT22;7770;52.158;5.372;2023-02-01T20:17:42;7.90;99.90